Time;durP1;ratioP1;P1;durP2;ratioP2;P2;SDS_P1;SDS_P2;PMS_P1;PMS_P2;Temp;Humidity;BMP_temperature;BMP_pressure;BME280_temperature;BME280_humidity;BME280_pressure;Samples;Min_cycle;Max_cycle;Signal;HPM_P1;HPM_P2
2023/03/19 00:00:46;;;;;;;6.83;3.20;;;;;;;23.82;33.59;99150.67;1851026;76;33178;-59
2023/03/19 00:03:35;;;;;;;7.33;2.90;;;;;;;23.82;33.58;99152.88;1850933;77;28274;-59
2023/03/19 00:06:24;;;;;;;5.80;2.83;;;;;;;23.82;33.58;99148.77;1844344;77;28145;-58
2023/03/19 00:09:13;;;;;;;5.70;3.02;;;;;;;23.80;33.62;99149.56;1854021;76;28294;-56
2023/03/19 00:12:01;;;;;;;7.00;2.65;;;;;;;23.82;33.60;99155.63;1851215;76;28187;-57
2023/03/19 00:14:50;;;;;;;10.78;2.98;;;;;;;23.84;33.60;99158.11;1848220;77;28195;-57
2023/03/19 00:17:39;;;;;;;5.33;2.35;;;;;;;23.84;33.63;99158.11;1860971;75;28166;-57
2023/03/19 00:20:27;;;;;;;8.00;2.85;;;;;;;23.84;33.65;99156.20;1825488;77;28242;-53
2023/03/19 00:23:15;;;;;;;5.72;2.58;;;;;;;23.83;33.72;99157.27;1848393;76;28155;-53
2023/03/19 00:26:05;;;;;;;5.53;2.62;;;;;;;23.89;33.66;99158.19;1836315;77;28153;-57
2023/03/19 00:28:55;;;;;;;4.87;2.15;;;;;;;23.85;33.75;99168.02;1852951;77;28182;-55
2023/03/19 00:31:44;;;;;;;6.42;2.40;;;;;;;23.84;33.77;99164.97;1843417;77;28253;-56
2023/03/19 00:34:32;;;;;;;6.33;2.55;;;;;;;23.81;33.84;99163.55;1847126;75;28384;-54
2023/03/19 00:37:21;;;;;;;7.50;2.87;;;;;;;23.81;33.83;99164.92;1852764;77;28128;-53
2023/03/19 00:40:11;;;;;;;5.97;2.55;;;;;;;23.81;33.88;99169.57;1849350;76;28150;-59
2023/03/19 00:43:00;;;;;;;6.00;2.23;;;;;;;23.80;33.89;99170.67;1856421;76;28077;-56
2023/03/19 00:45:49;;;;;;;5.85;2.50;;;;;;;23.80;33.85;99167.93;1855190;77;28304;-60
2023/03/19 00:48:38;;;;;;;3.90;2.13;;;;;;;23.81;33.89;99164.92;1847644;76;28189;-55
2023/03/19 00:51:28;;;;;;;4.72;2.27;;;;;;;23.78;33.93;99169.53;1836510;77;28286;-57
2023/03/19 00:54:16;;;;;;;5.22;2.60;;;;;;;23.79;33.91;99171.20;1859014;76;28217;-55
2023/03/19 00:57:05;;;;;;;3.55;2.08;;;;;;;23.78;33.95;99175.02;1863937;75;28204;-54
2023/03/19 00:59:53;;;;;;;2.58;1.92;;;;;;;23.77;33.96;99171.16;1878032;75;28410;-56
2023/03/19 01:02:42;;;;;;;5.97;2.25;;;;;;;23.78;33.94;99171.47;1849203;75;28312;-55
2023/03/19 01:05:31;;;;;;;4.72;2.10;;;;;;;23.76;33.94;99164.84;1883761;75;28201;-55
2023/03/19 01:08:19;;;;;;;5.70;2.17;;;;;;;23.76;34.01;99176.34;1871756;75;28732;-55
2023/03/19 01:11:13;;;;;;;3.95;2.08;;;;;;;23.73;33.97;99165.36;1878008;75;38562;-55
2023/03/19 01:14:02;;;;;;;4.08;1.98;;;;;;;23.76;34.03;99172.23;1880805;75;28143;-57
2023/03/19 01:16:50;;;;;;;3.20;1.98;;;;;;;23.78;33.99;99176.95;1878670;75;28209;-56
2023/03/19 01:19:39;;;;;;;4.75;2.10;;;;;;;23.76;34.01;99175.81;1866041;75;28269;-54
2023/03/19 01:22:29;;;;;;;4.30;1.95;;;;;;;23.81;33.96;99177.27;1876685;75;28119;-56
2023/03/19 01:25:19;;;;;;;2.22;1.95;;;;;;;23.80;33.96;99183.02;1872415;75;28530;-55
2023/03/19 01:28:09;;;;;;;3.20;1.85;;;;;;;23.78;34.00;99186.55;1876899;75;28286;-53
2023/03/19 01:31:01;;;;;;;2.23;1.57;;;;;;;23.78;34.02;99182.44;1828119;77;28183;-57
2023/03/19 01:34:05;;;;;;;5.20;1.87;;;;;;;23.78;34.00;99170.90;1789455;78;28402;-57
2023/03/19 01:36:55;;;;;;;3.02;1.72;;;;;;;23.79;34.04;99167.63;1805296;78;29132;-54
2023/03/19 01:39:45;;;;;;;5.83;1.93;;;;;;;23.82;33.99;99167.97;1827220;78;28342;-54
2023/03/19 01:42:37;;;;;;;2.58;1.80;;;;;;;23.78;34.02;99166.78;1821397;78;28309;-55
2023/03/19 01:45:36;;;;;;;2.72;1.95;;;;;;;23.82;33.97;99169.34;1822217;78;28317;-54
2023/03/19 01:48:51;;;;;;;3.45;1.95;;;;;;;23.80;34.00;99166.56;1826710;78;28328;-55
2023/03/19 01:51:44;;;;;;;2.85;1.77;;;;;;;23.82;34.01;99165.76;1827760;78;28179;-54
2023/03/19 01:54:40;;;;;;;2.22;1.50;;;;;;;23.79;34.06;99163.51;1803893;77;28523;-55
2023/03/19 01:57:47;;;;;;;2.33;1.60;;;;;;;23.81;33.98;99159.44;1824573;77;28303;-55
2023/03/19 02:00:54;;;;;;;3.12;1.67;;;;;;;23.77;34.06;99157.45;1861649;75;28244;-55
2023/03/19 02:03:45;;;;;;;2.97;1.93;;;;;;;23.75;34.13;99164.56;1843643;76;28027;-56
2023/03/19 02:06:42;;;;;;;1.43;1.33;;;;;;;23.79;34.10;99160.77;1862539;76;28128;-55
2023/03/19 02:09:32;;;;;;;1.70;1.60;;;;;;;23.76;34.10;99159.35;1851852;76;28248;-56
2023/03/19 02:12:20;;;;;;;2.58;1.82;;;;;;;23.81;34.05;99161.34;1853931;76;28123;-54
2023/03/19 02:15:10;;;;;;;3.50;1.62;;;;;;;23.81;34.07;99164.92;1862229;75;28057;-56
2023/03/19 02:17:59;;;;;;;2.80;1.50;;;;;;;23.84;34.06;99166.34;1836361;76;28226;-54
2023/03/19 02:21:12;;;;;;;2.05;1.52;;;;;;;23.82;34.08;99167.13;1836408;76;28162;-57
2023/03/19 02:24:31;;;;;;;2.35;1.60;;;;;;;23.86;34.00;99169.13;1844934;75;28254;-53
2023/03/19 02:27:24;;;;;;;1.15;1.12;;;;;;;23.82;34.01;99163.86;1820541;76;28149;-52
2023/03/19 02:30:19;;;;;;;2.40;1.60;;;;;;;23.76;34.14;99166.21;1863123;76;28015;-54
2023/03/19 02:33:11;;;;;;;2.15;1.32;;;;;;;23.78;34.09;99167.35;1864590;76;28110;-57
2023/03/19 02:36:00;;;;;;;1.82;1.37;;;;;;;23.79;34.10;99170.37;1849948;76;28106;-55
2023/03/19 02:38:50;;;;;;;2.22;1.32;;;;;;;23.82;34.08;99169.87;1853204;76;28110;-54
2023/03/19 02:41:41;;;;;;;1.37;1.27;;;;;;;23.82;34.09;99173.45;1870595;75;28193;-54
2023/03/19 02:44:29;;;;;;;3.20;1.40;;;;;;;23.82;34.09;99175.36;1853620;76;28141;-56
2023/03/19 02:47:18;;;;;;;2.83;1.42;;;;;;;23.82;34.07;99180.31;1857709;76;28314;-59
2023/03/19 02:50:08;;;;;;;4.72;1.47;;;;;;;23.81;34.10;99183.28;1838028;76;28119;-54
2023/03/19 02:52:56;;;;;;;1.67;1.30;;;;;;;23.81;34.08;99180.55;1858339;76;38416;-51
2023/03/19 02:55:44;;;;;;;1.52;1.37;;;;;;;23.84;34.07;99180.05;1855042;75;28103;-57
2023/03/19 02:58:33;;;;;;;1.65;1.40;;;;;;;23.83;34.08;99177.84;1852799;77;28145;-53
2023/03/19 03:01:21;;;;;;;1.40;1.30;;;;;;;23.84;34.11;99178.15;1856675;77;28195;-54
2023/03/19 03:04:09;;;;;;;1.52;1.40;;;;;;;23.81;34.08;99177.80;1862919;76;30112;-56
2023/03/19 03:06:58;;;;;;;1.70;1.60;;;;;;;23.83;34.09;99179.21;1842162;77;28182;-55
2023/03/19 03:09:47;;;;;;;1.77;1.30;;;;;;;23.86;34.08;99175.14;1863526;76;28270;-56
2023/03/19 03:12:35;;;;;;;2.00;1.40;;;;;;;23.90;34.02;99168.06;1862732;76;28169;-59
2023/03/19 03:15:24;;;;;;;1.45;1.35;;;;;;;23.85;34.06;99173.50;1853999;76;28115;-56
2023/03/19 03:18:12;;;;;;;1.10;1.10;;;;;;;23.85;34.04;99174.88;1850916;76;28110;-57
2023/03/19 03:21:01;;;;;;;0.93;0.93;;;;;;;23.85;34.09;99173.50;1865438;76;28204;-55
2023/03/19 03:23:50;;;;;;;1.40;1.17;;;;;;;23.82;34.07;99171.25;1858227;76;28207;-56
2023/03/19 03:26:38;;;;;;;2.00;1.55;;;;;;;23.82;34.11;99178.11;1865426;76;28165;-57
2023/03/19 03:29:27;;;;;;;1.40;1.30;;;;;;;23.81;34.15;99181.91;1854559;76;28213;-54
2023/03/19 03:32:16;;;;;;;1.42;1.12;;;;;;;23.80;34.15;99177.53;1856861;77;28171;-56
2023/03/19 03:35:06;;;;;;;1.20;1.10;;;;;;;23.80;34.20;99182.48;1853420;76;28130;-55
2023/03/19 03:37:54;;;;;;;1.85;1.40;;;;;;;23.85;34.12;99178.98;1858979;76;32008;-57
2023/03/19 03:40:42;;;;;;;1.52;0.98;;;;;;;23.85;34.14;99170.75;1851551;77;28162;-54
2023/03/19 03:43:31;;;;;;;1.05;1.00;;;;;;;23.85;34.09;99171.56;1831382;77;28396;-55
2023/03/19 03:46:20;;;;;;;1.00;0.82;;;;;;;23.85;34.08;99174.88;1856677;76;28443;-56
2023/03/19 03:49:10;;;;;;;1.32;1.27;;;;;;;23.84;34.10;99180.89;1854016;76;29204;-57
2023/03/19 03:51:59;;;;;;;2.30;1.30;;;;;;;23.83;34.17;99182.49;1865688;76;28250;-55
2023/03/19 03:54:48;;;;;;;1.17;1.10;;;;;;;23.82;34.23;99183.59;1855196;77;28296;-56
2023/03/19 03:57:37;;;;;;;1.12;1.02;;;;;;;23.82;34.15;99184.96;1868597;76;28179;-57
2023/03/19 04:00:27;;;;;;;1.40;1.27;;;;;;;23.83;34.16;99183.33;1858331;76;28146;-54
2023/03/19 04:03:16;;;;;;;1.47;1.12;;;;;;;23.85;34.13;99184.47;1875272;76;28688;-58
2023/03/19 04:06:05;;;;;;;1.30;1.20;;;;;;;23.86;34.12;99186.95;1868878;76;28243;-56
2023/03/19 04:08:55;;;;;;;1.07;0.97;;;;;;;23.90;34.02;99193.59;1875216;75;28131;-57
2023/03/19 04:11:44;;;;;;;1.90;0.98;;;;;;;23.85;34.14;99196.81;1861690;76;28079;-55
2023/03/19 04:14:33;;;;;;;1.20;1.15;;;;;;;23.83;34.15;99203.06;1869824;76;28083;-57
2023/03/19 04:17:22;;;;;;;1.00;0.98;;;;;;;23.87;34.12;99201.51;1854136;75;28333;-55
2023/03/19 04:20:13;;;;;;;1.12;1.02;;;;;;;23.85;34.12;99198.19;1865618;76;28131;-57
2023/03/19 04:23:02;;;;;;;1.15;1.10;;;;;;;23.84;34.14;99200.09;1874529;76;28144;-55
2023/03/19 04:25:51;;;;;;;1.30;0.90;;;;;;;23.86;34.09;99199.83;1872616;75;28158;-55
2023/03/19 04:28:40;;;;;;;1.23;1.10;;;;;;;23.87;34.11;99195.48;1872496;76;28236;-54
2023/03/19 04:31:29;;;;;;;1.27;1.17;;;;;;;23.87;34.14;99200.13;1874881;76;28080;-55
2023/03/19 04:34:18;;;;;;;1.10;1.00;;;;;;;23.85;34.19;99209.16;1874220;76;28093;-56
2023/03/19 04:37:09;;;;;;;1.90;1.20;;;;;;;23.85;34.14;99199.55;1877886;76;28091;-58
2023/03/19 04:39:59;;;;;;;1.10;1.10;;;;;;;23.85;34.12;99207.79;1873025;76;28166;-55
2023/03/19 04:42:49;;;;;;;1.65;1.15;;;;;;;23.84;34.20;99208.85;1878272;76;28145;-58
2023/03/19 04:45:38;;;;;;;1.00;0.90;;;;;;;23.85;34.12;99205.84;1876776;76;28148;-54
2023/03/19 04:48:27;;;;;;;1.20;1.10;;;;;;;23.85;34.18;99205.05;1878048;76;28129;-56
2023/03/19 04:51:16;;;;;;;1.27;1.17;;;;;;;23.81;34.17;99206.06;1864277;76;28111;-57
2023/03/19 04:54:05;;;;;;;1.17;1.07;;;;;;;23.84;34.18;99213.81;1852464;75;28325;-58
2023/03/19 04:56:53;;;;;;;1.77;1.10;;;;;;;23.86;34.14;99219.03;1863646;75;28209;-57
2023/03/19 04:59:43;;;;;;;0.78;0.78;;;;;;;23.85;34.14;99221.50;1879835;75;28166;-55
2023/03/19 05:02:33;;;;;;;0.90;0.90;;;;;;;23.85;34.16;99221.50;1873102;76;28219;-53
2023/03/19 05:05:21;;;;;;;1.00;0.90;;;;;;;23.88;34.15;99225.09;1862865;75;28132;-56
2023/03/19 05:08:10;;;;;;;1.30;0.87;;;;;;;23.87;34.13;99229.78;1874292;76;28213;-55
2023/03/19 05:10:59;;;;;;;0.80;0.80;;;;;;;23.89;34.07;99228.14;1868151;75;28197;-57
2023/03/19 05:13:49;;;;;;;1.13;1.10;;;;;;;23.92;34.08;99237.25;1871643;76;28162;-57
2023/03/19 05:16:37;;;;;;;0.80;0.80;;;;;;;23.87;34.11;99233.05;1857807;75;28649;-55
2023/03/19 05:19:36;;;;;;;1.20;0.90;;;;;;;23.85;34.14;99236.59;1859547;76;28132;-56
2023/03/19 05:22:25;;;;;;;0.93;0.88;;;;;;;23.82;34.19;99239.29;1869071;76;28182;-54
2023/03/19 05:25:14;;;;;;;1.00;1.00;;;;;;;23.85;34.18;99242.88;1870847;75;28153;-58
2023/03/19 05:28:06;;;;;;;0.88;0.88;;;;;;;23.86;34.16;99245.09;1861851;75;28114;-56
2023/03/19 05:30:55;;;;;;;0.90;0.90;;;;;;;23.86;34.14;99243.19;1835871;77;28142;-55
2023/03/19 05:33:48;;;;;;;1.10;1.00;;;;;;;23.89;34.11;99242.70;1813493;78;28342;-55
2023/03/19 05:36:38;;;;;;;1.15;0.82;;;;;;;23.87;34.15;99247.61;1824412;77;30220;-57
2023/03/19 05:39:29;;;;;;;1.10;1.00;;;;;;;23.85;34.14;99245.63;1817868;78;28348;-55
2023/03/19 05:42:18;;;;;;;1.00;1.00;;;;;;;23.89;34.16;99251.46;1819920;78;28396;-54
2023/03/19 05:45:09;;;;;;;0.90;0.90;;;;;;;23.85;34.16;99257.16;1878312;75;28099;-54
2023/03/19 05:48:00;;;;;;;0.90;0.90;;;;;;;23.84;34.23;99262.34;1874128;75;28084;-56
2023/03/19 05:50:51;;;;;;;0.55;0.55;;;;;;;23.85;34.24;99268.13;1868498;75;28303;-54
2023/03/19 05:53:41;;;;;;;0.83;0.83;;;;;;;23.88;34.11;99269.83;1881066;75;28276;-53
2023/03/19 05:56:46;;;;;;;0.80;0.80;;;;;;;23.88;34.13;99275.84;1861233;75;28083;-57
2023/03/19 05:59:42;;;;;;;1.30;0.80;;;;;;;23.83;34.21;99277.13;1869313;75;28174;-56
2023/03/19 06:02:39;;;;;;;0.80;0.80;;;;;;;23.81;34.24;99291.09;1831254;77;28214;-56
2023/03/19 06:05:30;;;;;;;1.10;1.00;;;;;;;23.87;34.22;99289.28;1806576;78;28324;-57
2023/03/19 06:08:22;;;;;;;1.50;0.80;;;;;;;23.88;34.12;99296.42;1826151;78;28371;-54
2023/03/19 06:11:21;;;;;;;0.80;0.80;;;;;;;23.87;34.13;99303.00;1822880;78;32186;-55
2023/03/19 06:14:11;;;;;;;1.00;1.00;;;;;;;23.84;34.23;99303.48;1816502;78;28427;-54
2023/03/19 06:17:01;;;;;;;0.80;0.80;;;;;;;23.86;34.20;99306.81;1825790;78;28266;-56
2023/03/19 06:19:49;;;;;;;0.80;0.80;;;;;;;23.91;34.12;99315.98;1875283;75;28130;-56
2023/03/19 06:22:38;;;;;;;1.17;0.73;;;;;;;23.91;34.12;99322.83;1859375;75;28186;-56
2023/03/19 06:25:26;;;;;;;0.90;0.90;;;;;;;23.89;34.12;99325.53;1870810;75;28133;-56
2023/03/19 06:28:15;;;;;;;0.93;0.80;;;;;;;23.89;34.14;99328.27;1829416;77;28068;-57
2023/03/19 06:31:05;;;;;;;0.85;0.85;;;;;;;23.85;34.20;99329.86;1803451;78;28317;-56
2023/03/19 06:34:11;;;;;;;0.72;0.70;;;;;;;23.86;34.22;99330.13;1804570;78;28372;-56
2023/03/19 06:37:01;;;;;;;2.00;0.80;;;;;;;23.82;34.31;99338.57;1879772;75;28241;-55
2023/03/19 06:39:50;;;;;;;0.70;0.70;;;;;;;23.85;34.29;99339.45;1879753;75;28253;-55
2023/03/19 06:42:38;;;;;;;0.60;0.60;;;;;;;23.83;34.29;99347.91;1884060;75;28106;-57
2023/03/19 06:45:27;;;;;;;0.82;0.82;;;;;;;23.84;34.23;99351.49;1880568;75;28137;-56
2023/03/19 06:48:15;;;;;;;0.85;0.80;;;;;;;23.86;34.25;99354.82;1878724;75;28055;-57
2023/03/19 06:51:06;;;;;;;0.70;0.70;;;;;;;23.85;34.27;99355.35;1879416;75;28204;-55
2023/03/19 06:53:55;;;;;;;1.20;0.80;;;;;;;23.86;34.23;99350.17;1870545;75;28193;-56
2023/03/19 06:56:44;;;;;;;1.10;0.68;;;;;;;23.91;34.17;99357.12;1878856;75;28297;-56
2023/03/19 06:59:32;;;;;;;0.70;0.70;;;;;;;23.88;34.22;99358.14;1877695;75;28047;-54
2023/03/19 07:02:22;;;;;;;1.30;0.80;;;;;;;23.87;34.20;99356.50;1874480;75;28138;-56
2023/03/19 07:05:10;;;;;;;0.80;0.80;;;;;;;23.88;34.20;99359.52;1860428;76;28073;-53
2023/03/19 07:07:59;;;;;;;0.88;0.88;;;;;;;23.92;34.19;99364.83;1873668;75;28086;-56
2023/03/19 07:10:47;;;;;;;0.90;0.80;;;;;;;23.88;34.20;99374.60;1865843;76;28377;-56
2023/03/19 07:13:36;;;;;;;1.10;0.70;;;;;;;23.86;34.25;99374.02;1859185;76;28082;-56
2023/03/19 07:16:25;;;;;;;0.98;0.70;;;;;;;23.88;34.27;99371.33;1868504;75;28105;-55
2023/03/19 07:19:13;;;;;;;0.70;0.70;;;;;;;23.88;34.24;99375.44;1878004;76;28183;-54
2023/03/19 07:22:02;;;;;;;0.80;0.80;;;;;;;23.88;34.23;99377.34;1877718;76;28099;-55
2023/03/19 07:24:51;;;;;;;0.80;0.80;;;;;;;23.86;34.26;99388.58;1860370;76;28267;-58
2023/03/19 07:27:39;;;;;;;0.80;0.80;;;;;;;23.85;34.24;99385.52;1839202;77;28090;-52
2023/03/19 07:30:28;;;;;;;0.70;0.70;;;;;;;23.85;34.26;99388.84;1881343;76;28063;-53
2023/03/19 07:33:16;;;;;;;0.78;0.78;;;;;;;23.84;34.26;99394.02;1860197;76;28053;-53
2023/03/19 07:36:06;;;;;;;0.80;0.80;;;;;;;23.86;34.29;99395.97;1858929;76;28144;-56
2023/03/19 07:38:54;;;;;;;0.70;0.70;;;;;;;23.88;34.26;99403.41;1870801;76;28138;-55
2023/03/19 07:41:43;;;;;;;0.70;0.70;;;;;;;23.88;34.22;99411.64;1881511;76;28078;-56
2023/03/19 07:44:34;;;;;;;0.80;0.80;;;;;;;23.90;34.24;99414.97;1859950;76;28183;-55
2023/03/19 07:47:22;;;;;;;0.70;0.70;;;;;;;23.90;34.22;99414.44;1881336;75;28120;-56
2023/03/19 07:50:12;;;;;;;0.80;0.80;;;;;;;23.91;34.21;99418.86;1876311;75;28032;-53
2023/03/19 07:53:00;;;;;;;0.68;0.68;;;;;;;23.90;34.22;99421.83;1877098;75;28639;-55
2023/03/19 07:55:48;;;;;;;0.77;0.63;;;;;;;23.87;34.26;99426.45;1865116;76;28121;-56
2023/03/19 07:58:37;;;;;;;0.65;0.65;;;;;;;23.89;34.22;99429.78;1879487;75;28103;-56
2023/03/19 08:01:26;;;;;;;0.80;0.80;;;;;;;23.91;34.21;99425.72;1880380;76;28199;-55
2023/03/19 08:04:15;;;;;;;0.80;0.80;;;;;;;23.87;34.26;99427.83;1878197;76;28382;-55
2023/03/19 08:07:03;;;;;;;0.93;0.80;;;;;;;23.84;34.31;99429.67;1860376;75;28113;-57
2023/03/19 08:09:52;;;;;;;0.70;0.70;;;;;;;23.87;34.28;99431.41;1864646;76;28323;-58
2023/03/19 08:12:40;;;;;;;1.05;0.80;;;;;;;23.88;34.35;99432.22;1868130;76;28191;-55
2023/03/19 08:15:28;;;;;;;0.70;0.70;;;;;;;23.88;34.30;99430.31;1857307;76;28133;-53
2023/03/19 08:18:17;;;;;;;0.80;0.75;;;;;;;23.85;34.33;99432.73;1867426;76;28122;-56
2023/03/19 08:21:06;;;;;;;0.62;0.62;;;;;;;23.90;34.29;99435.54;1856541;76;28196;-55
2023/03/19 08:23:54;;;;;;;0.60;0.60;;;;;;;23.90;34.29;99435.54;1857073;76;33553;-55
2023/03/19 08:26:43;;;;;;;0.70;0.70;;;;;;;23.86;34.32;99432.47;1852088;76;32066;-56
2023/03/19 08:29:31;;;;;;;0.57;0.57;;;;;;;23.88;34.40;99436.33;1854488;76;28227;-54
2023/03/19 08:32:20;;;;;;;0.68;0.68;;;;;;;23.92;34.42;99440.27;1868712;76;28190;-50
2023/03/19 08:35:10;;;;;;;0.60;0.60;;;;;;;23.95;34.29;99433.74;1872437;76;28137;-51
2023/03/19 08:37:59;;;;;;;0.80;0.80;;;;;;;24.00;34.22;99433.00;1864421;76;28057;-54
2023/03/19 08:40:47;;;;;;;0.72;0.72;;;;;;;23.99;34.28;99436.28;1876834;76;28107;-52
2023/03/19 08:43:37;;;;;;;0.67;0.67;;;;;;;24.02;34.25;99439.08;1873310;76;28250;-52
2023/03/19 08:46:26;;;;;;;0.72;0.72;;;;;;;24.03;34.23;99438.02;1865679;76;28115;-54
2023/03/19 08:49:15;;;;;;;0.70;0.70;;;;;;;24.02;34.20;99434.96;1877779;76;28104;-55
2023/03/19 08:52:05;;;;;;;0.60;0.60;;;;;;;24.02;34.24;99431.69;1871407;76;28138;-52
2023/03/19 08:54:53;;;;;;;0.90;0.90;;;;;;;24.00;34.25;99442.61;1858678;76;28174;-54
2023/03/19 08:57:42;;;;;;;0.50;0.50;;;;;;;23.99;34.28;99447.82;1853760;76;28216;-55
2023/03/19 09:00:30;;;;;;;0.70;0.70;;;;;;;24.01;34.29;99453.89;1860653;76;28126;-56
2023/03/19 09:03:20;;;;;;;0.57;0.57;;;;;;;23.99;34.30;99455.48;1861083;75;28163;-54
2023/03/19 09:06:13;;;;;;;0.70;0.70;;;;;;;24.00;34.32;99454.42;1869144;75;28246;-54
2023/03/19 09:09:02;;;;;;;0.78;0.78;;;;;;;23.97;34.32;99450.79;1866675;75;28095;-56
2023/03/19 09:11:50;;;;;;;0.60;0.57;;;;;;;24.00;34.33;99459.08;1865558;76;28168;-53
2023/03/19 09:14:39;;;;;;;0.75;0.75;;;;;;;23.99;34.32;99459.61;1871874;76;28197;-52
2023/03/19 09:17:27;;;;;;;0.65;0.65;;;;;;;23.96;34.35;99454.63;1865231;76;28123;-57
2023/03/19 09:20:16;;;;;;;0.78;0.78;;;;;;;23.98;34.36;99461.23;1863401;76;28231;-55
2023/03/19 09:23:05;;;;;;;0.70;0.70;;;;;;;23.99;34.32;99465.09;1854716;74;28662;-55
2023/03/19 09:25:53;;;;;;;0.82;0.80;;;;;;;23.99;34.40;99465.09;1871463;75;28047;-51
2023/03/19 09:28:42;;;;;;;1.10;1.02;;;;;;;23.99;34.38;99465.09;1872885;76;28244;-55
2023/03/19 09:31:30;;;;;;;0.90;0.90;;;;;;;23.98;34.18;99461.23;1860828;76;28087;-54
2023/03/19 09:34:18;;;;;;;1.30;0.97;;;;;;;23.99;34.15;99461.54;1864464;76;28212;-56
2023/03/19 09:37:07;;;;;;;0.80;0.80;;;;;;;23.97;34.06;99465.04;1852928;75;28246;-53
2023/03/19 09:39:55;;;;;;;1.57;1.00;;;;;;;23.91;34.01;99457.27;1873951;76;28068;-54
2023/03/19 09:42:55;;;;;;;0.87;0.87;;;;;;;23.92;34.14;99460.85;1867001;76;28185;-55
2023/03/19 09:45:46;;;;;;;1.12;1.10;;;;;;;23.94;34.12;99462.24;1877893;76;28324;-53
2023/03/19 09:48:40;;;;;;;0.98;0.90;;;;;;;23.96;34.12;99464.77;1862138;76;28345;-55
2023/03/19 09:51:31;;;;;;;0.90;0.90;;;;;;;23.94;34.14;99462.80;1868069;76;28199;-53
2023/03/19 09:54:28;;;;;;;1.20;1.10;;;;;;;23.92;34.20;99458.91;1865658;75;28295;-54
2023/03/19 09:57:17;;;;;;;1.22;1.10;;;;;;;23.91;34.24;99456.42;1859248;76;28184;-53
2023/03/19 10:00:23;;;;;;;1.15;1.15;;;;;;;23.89;34.20;99447.61;1874499;76;28552;-52
2023/03/19 10:03:33;;;;;;;0.98;0.98;;;;;;;23.93;34.25;99445.50;1870514;76;28161;-60
2023/03/19 10:06:32;;;;;;;0.90;0.90;;;;;;;23.93;34.25;99448.25;1875681;75;28157;-58
2023/03/19 10:09:27;;;;;;;1.10;1.10;;;;;;;23.94;34.26;99447.16;1868848;75;28116;-58
2023/03/19 10:12:36;;;;;;;0.90;0.90;;;;;;;23.93;34.33;99446.03;1869717;75;28550;-54
2023/03/19 10:15:29;;;;;;;0.93;0.93;;;;;;;23.92;34.38;99448.50;1869791;76;28302;-58
2023/03/19 10:18:23;;;;;;;1.90;1.00;;;;;;;23.93;34.40;99448.78;1867883;76;28170;-56
2023/03/19 10:21:17;;;;;;;1.27;1.15;;;;;;;23.97;34.37;99449.95;1872252;75;28307;-59
2023/03/19 10:24:09;;;;;;;1.00;1.00;;;;;;;23.98;34.33;99443.40;1874248;75;28180;-55
2023/03/19 10:27:04;;;;;;;1.10;1.10;;;;;;;23.96;34.39;99449.67;1875070;76;28200;-55
2023/03/19 10:29:52;;;;;;;1.22;1.22;;;;;;;24.00;34.37;99449.47;1876878;76;28238;-58
2023/03/19 10:32:46;;;;;;;1.42;1.05;;;;;;;24.02;34.33;99448.68;1878106;76;28244;-57
2023/03/19 10:35:37;;;;;;;1.27;1.17;;;;;;;23.98;34.33;99441.49;1866822;76;28207;-56
2023/03/19 10:38:27;;;;;;;1.10;1.10;;;;;;;23.99;34.38;99440.39;1856405;75;28196;-55
2023/03/19 10:41:37;;;;;;;1.55;1.00;;;;;;;24.02;34.37;99434.42;1860541;76;28133;-58
2023/03/19 10:44:51;;;;;;;1.10;1.10;;;;;;;24.00;34.36;99438.49;1876152;76;28064;-54
2023/03/19 10:47:41;;;;;;;1.20;1.20;;;;;;;24.02;34.28;99434.96;1867310;75;28203;-53
2023/03/19 10:50:50;;;;;;;1.25;1.02;;;;;;;24.00;34.31;99439.86;1856143;76;28207;-58
2023/03/19 10:53:40;;;;;;;1.40;1.30;;;;;;;24.00;34.36;99431.10;1857584;76;28271;-57
2023/03/19 10:56:31;;;;;;;1.27;1.20;;;;;;;24.00;34.37;99433.00;1877007;76;28161;-59
2023/03/19 10:59:28;;;;;;;1.30;1.17;;;;;;;24.03;34.22;99431.99;1868277;75;28033;-60
2023/03/19 11:02:19;;;;;;;1.20;1.10;;;;;;;24.03;34.27;99429.25;1853666;75;28074;-58
2023/03/19 11:05:14;;;;;;;1.27;1.17;;;;;;;24.01;34.36;99430.57;1862962;76;28153;-55
2023/03/19 11:08:07;;;;;;;1.42;0.95;;;;;;;24.00;34.41;99430.26;1861770;76;28387;-57
2023/03/19 11:10:55;;;;;;;1.00;1.00;;;;;;;24.00;34.30;99426.98;1869266;76;28090;-57
2023/03/19 11:13:47;;;;;;;1.67;1.35;;;;;;;24.01;34.16;99427.26;1868828;76;28086;-60
2023/03/19 11:16:56;;;;;;;1.30;1.17;;;;;;;23.98;34.04;99433.27;1836164;77;28182;-60
2023/03/19 11:19:51;;;;;;;1.00;1.00;;;;;;;23.95;33.83;99415.91;1785782;78;28326;-61
2023/03/19 11:22:41;;;;;;;1.30;1.20;;;;;;;23.94;33.84;99414.23;1813927;78;28373;-56
2023/03/19 11:25:35;;;;;;;1.40;1.30;;;;;;;23.93;33.73;99412.58;1807573;78;28437;-56
2023/03/19 11:28:31;;;;;;;1.47;1.37;;;;;;;23.94;33.76;99411.48;1813248;78;28358;-57
2023/03/19 11:31:36;;;;;;;2.80;2.00;;;;;;;23.95;33.83;99406.30;1802372;78;28498;-58
2023/03/19 11:34:27;;;;;;;1.80;1.70;;;;;;;23.95;33.86;99399.45;1829759;76;33032;-57
2023/03/19 11:37:22;;;;;;;1.32;1.22;;;;;;;23.93;33.92;99394.75;1812336;78;28477;-58
2023/03/19 11:40:30;;;;;;;1.82;1.67;;;;;;;23.96;33.99;99397.55;1808780;78;28368;-54
2023/03/19 11:43:46;;;;;;;1.95;1.55;;;;;;;23.96;34.06;99396.17;1781408;78;28400;-54
2023/03/19 11:46:55;;;;;;;1.72;1.62;;;;;;;23.94;34.14;99393.66;1817620;78;28393;-56
2023/03/19 11:49:49;;;;;;;1.82;1.72;;;;;;;23.92;34.14;99393.06;1815174;78;29225;-55
2023/03/19 11:52:59;;;;;;;1.95;1.77;;;;;;;23.90;34.22;99388.91;1819805;78;28336;-54
2023/03/19 11:56:13;;;;;;;2.25;2.05;;;;;;;23.92;34.14;99382.66;1812843;78;28396;-56
2023/03/19 11:59:33;;;;;;;3.58;2.45;;;;;;;23.98;34.11;99387.15;1806470;78;28573;-55
2023/03/19 12:02:27;;;;;;;2.50;2.17;;;;;;;23.94;34.28;99377.75;1823640;78;28430;-57
2023/03/19 12:05:25;;;;;;;2.98;2.37;;;;;;;23.95;34.28;99375.28;1822212;78;28301;-56
2023/03/19 12:08:20;;;;;;;3.00;2.20;;;;;;;23.96;34.20;99376.97;1819628;78;28328;-56
2023/03/19 12:11:23;;;;;;;2.70;2.50;;;;;;;24.01;34.17;99367.45;1802386;78;28459;-53
2023/03/19 12:14:47;;;;;;;2.65;2.45;;;;;;;24.01;34.21;99366.09;1786997;79;28378;-54
2023/03/19 12:17:58;;;;;;;2.77;2.58;;;;;;;24.02;34.23;99362.25;1845963;76;28142;-53
2023/03/19 12:21:13;;;;;;;6.55;2.72;;;;;;;23.96;34.43;99359.97;1868896;76;28132;-56
2023/03/19 12:24:22;;;;;;;3.67;2.90;;;;;;;23.99;34.65;99357.27;1848210;76;28277;-56
2023/03/19 12:27:29;;;;;;;2.63;2.43;;;;;;;23.97;34.83;99353.92;1868340;76;28138;-57
2023/03/19 12:30:40;;;;;;;3.30;2.83;;;;;;;23.97;35.06;99352.55;1869052;76;28142;-55
2023/03/19 12:33:49;;;;;;;3.70;2.92;;;;;;;23.94;35.15;99347.02;1856620;76;28151;-56
2023/03/19 12:36:55;;;;;;;4.62;3.42;;;;;;;23.95;35.14;99351.97;1855224;76;28574;-57
2023/03/19 12:40:20;;;;;;;6.90;3.87;;;;;;;23.93;35.10;99345.89;1853233;76;28113;-57
2023/03/19 12:43:20;;;;;;;3.87;3.47;;;;;;;23.94;35.15;99350.31;1858022;75;28163;-62
2023/03/19 12:46:14;;;;;;;3.50;3.20;;;;;;;23.93;35.26;99349.48;1862986;75;28103;-64
2023/03/19 12:49:22;;;;;;;5.08;3.87;;;;;;;23.92;35.32;99346.43;1861768;76;28243;-62
2023/03/19 12:52:16;;;;;;;5.10;4.12;;;;;;;23.98;35.35;99338.60;1852115;76;28242;-64
2023/03/19 12:55:14;;;;;;;4.87;3.67;;;;;;;24.00;35.32;99334.23;1856483;76;28051;-65
2023/03/19 12:58:13;;;;;;;6.40;3.45;;;;;;;24.01;35.31;99340.83;1859398;75;28141;-66
2023/03/19 13:01:08;;;;;;;4.03;3.45;;;;;;;24.04;35.28;99338.13;1860489;76;28134;-64
2023/03/19 13:04:12;;;;;;;4.30;3.80;;;;;;;24.04;35.29;99335.39;1863265;76;28117;-62
2023/03/19 13:07:09;;;;;;;5.45;3.52;;;;;;;24.06;35.25;99334.66;1842042;76;28140;-64
2023/03/19 13:10:12;;;;;;;4.70;3.65;;;;;;;24.05;35.35;99330.20;1864497;76;38449;-65
2023/03/19 13:13:04;;;;;;;5.05;3.45;;;;;;;24.07;35.26;99330.81;1866417;76;28182;-63
2023/03/19 13:15:55;;;;;;;4.20;3.45;;;;;;;24.08;35.30;99324.27;1845422;77;28160;-62
2023/03/19 13:18:52;;;;;;;4.17;3.30;;;;;;;24.09;35.29;99323.70;1866225;76;28146;-63
2023/03/19 13:21:42;;;;;;;3.70;3.40;;;;;;;24.09;35.25;99314.93;1844906;76;28269;-63
2023/03/19 13:24:40;;;;;;;4.75;4.03;;;;;;;24.10;35.25;99315.23;1848229;77;28423;-61
2023/03/19 13:27:36;;;;;;;3.60;2.92;;;;;;;24.09;35.14;99307.23;1848089;77;28138;-63
2023/03/19 13:30:25;;;;;;;3.83;3.42;;;;;;;24.08;35.08;99310.55;1851781;76;28207;-62
2023/03/19 13:33:16;;;;;;;6.90;3.40;;;;;;;24.08;35.14;99303.68;1848999;77;28138;-63